Time;durP1;ratioP1;P1;durP2;ratioP2;P2;SDS_P1;SDS_P2;PMS_P1;PMS_P2;Temp;Humidity;BMP_temperature;BMP_pressure;BME280_temperature;BME280_humidity;BME280_pressure;Samples;Min_cycle;Max_cycle;Signal;HPM_P1;HPM_P2
2023/03/31 00:01:42;;;;;;;;;;;14.30;82.60;;;14.64;50.14;98080.78;4925201;28;123776;-77
2023/03/31 00:04:11;;;;;;;;;;;14.30;82.60;;;14.67;50.26;98079.22;4925972;28;126126;-75
2023/03/31 00:06:40;;;;;;;;;;;14.30;82.50;;;14.67;49.97;98073.66;4928451;28;119068;-74
2023/03/31 00:09:08;;;;;;;;;;;14.40;82.50;;;14.68;49.95;98075.28;4920686;28;118908;-74
2023/03/31 00:11:40;;;;;;;;;;;14.40;82.50;;;14.69;49.90;98071.34;4926331;28;124584;-75
2023/03/31 00:14:07;;;;;;;;;;;14.40;82.40;;;14.70;50.00;98061.84;4923599;28;123921;-75
2023/03/31 00:16:39;;;;;;;;;;;14.40;82.30;;;14.70;49.91;98056.28;4929801;28;119084;-74
2023/03/31 00:19:09;;;;;;;;;;;14.40;82.30;;;14.69;49.66;98051.88;4918037;28;117766;-75
2023/03/31 00:21:41;;;;;;;;;;;14.40;82.20;;;14.69;49.73;98049.09;4912478;28;123731;-77
2023/03/31 00:24:09;;;;;;;;;;;14.30;82.00;;;14.66;49.60;98047.84;4944367;28;123214;-74
2023/03/31 00:26:37;;;;;;;;;;;14.30;82.00;;;14.66;49.69;98047.84;4915972;28;118965;-75
2023/03/31 00:29:07;;;;;;;;;;;14.30;81.90;;;14.66;49.56;98038.69;4927058;28;118682;-75
2023/03/31 00:31:40;;;;;;;;;;;14.30;81.80;;;14.65;49.73;98031.53;4921540;28;124074;-75
2023/03/31 00:34:09;;;;;;;;;;;14.30;81.80;;;14.64;49.77;98029.91;4926599;28;124347;-74
2023/03/31 00:36:46;;;;;;;;;;;14.30;81.80;;;14.64;49.70;98024.34;4922074;28;119543;-75
2023/03/31 00:39:16;;;;;;;;;;;14.30;81.80;;;14.63;49.85;98017.97;4917875;28;119554;-75
2023/03/31 00:41:43;;;;;;;;;;;14.30;81.80;;;14.63;49.67;98022.72;4922335;28;123418;-75
2023/03/31 00:44:17;;;;;;;;;;;14.30;82.50;;;14.61;49.63;98020.28;4921415;28;123003;-75
2023/03/31 00:46:51;;;;;;;;;;;14.30;81.80;;;14.62;49.70;98007.22;4926136;28;121278;-75
2023/03/31 00:49:32;;;;;;;;;;;14.30;81.70;;;14.64;49.69;98013.22;4920677;28;119654;-75
2023/03/31 00:52:16;;;;;;;;;;;14.30;81.80;;;14.63;49.42;98011.59;4925974;28;124403;-74
2023/03/31 00:54:46;;;;;;;;;;;14.30;81.70;;;14.63;49.78;98008.81;4923499;28;123765;-75
2023/03/31 00:57:15;;;;;;;;;;;14.30;81.70;;;14.60;49.68;98004.78;4924900;28;119216;-75
2023/03/31 00:59:55;;;;;;;;;;;14.30;81.70;;;14.57;49.71;97995.19;4924893;28;118865;-75
2023/03/31 01:02:29;;;;;;;;;;;14.30;81.80;;;14.57;49.82;97997.97;4925579;28;124462;-75
2023/03/31 01:05:01;;;;;;;;;;;14.30;81.80;;;14.57;49.61;98006.31;4918891;28;122615;-74
2023/03/31 01:07:45;;;;;;;;;;;14.30;81.80;;;14.58;49.62;97996.00;4912649;28;119021;-74
2023/03/31 01:10:14;;;;;;;;;;;14.30;81.70;;;14.58;49.62;97999.56;4930735;28;119171;-75
2023/03/31 01:12:43;;;;;;;;;;;14.30;81.70;;;14.61;49.66;97994.47;4927376;28;125780;-74
2023/03/31 01:15:09;;;;;;;;;;;14.30;82.30;;;14.62;49.61;97990.53;4931888;28;123832;-75
2023/03/31 01:17:39;;;;;;;;;;;14.30;81.70;;;14.63;49.43;97979.06;4928492;28;119534;-75
2023/03/31 01:20:19;;;;;;;;;;;14.30;81.50;;;14.65;49.40;97971.16;4927910;28;118907;-75
2023/03/31 01:22:58;;;;;;;;;;;14.30;81.50;;;14.67;49.37;97959.66;4929239;28;124256;-75
2023/03/31 01:25:46;;;;;;;;;;;14.40;81.60;;;14.67;49.43;97937.41;4932249;28;124056;-75
2023/03/31 01:28:39;;;;;;;;;;;14.40;81.50;;;14.70;49.58;97928.38;4931573;28;118757;-75
2023/03/31 01:31:29;;;;;;;;;;;14.40;81.50;;;14.70;49.44;97928.38;4943331;28;118433;-75
2023/03/31 01:34:26;;;;;;;;;;;14.40;81.30;;;14.74;49.31;97940.38;4948746;28;124027;-75
2023/03/31 01:37:18;;;;;;;;;;;14.40;81.30;;;14.74;49.35;97946.75;4945261;28;124016;-75
2023/03/31 01:40:09;;;;;;;;;;;14.40;81.30;;;14.73;49.14;97945.16;4937394;28;121068;-75
2023/03/31 01:42:55;;;;;;;;;;;14.40;81.20;;;14.74;49.36;97948.72;4939392;28;119299;-75
2023/03/31 01:45:41;;;;;;;;;;;14.40;81.20;;;14.73;49.24;97950.69;4944678;28;124245;-76
2023/03/31 01:48:40;;;;;;;;;;;14.40;81.30;;;14.67;49.45;97951.31;4944378;28;124876;-75
2023/03/31 01:51:18;;;;;;;;;;;14.40;81.30;;;14.67;49.58;97956.88;4930325;28;120045;-73
2023/03/31 01:54:16;;;;;;;;;;;14.40;81.30;;;14.64;49.43;97960.38;4925635;28;118621;-72
2023/03/31 01:57:08;;;;;;;;;;;14.40;81.10;;;14.61;49.33;97958.34;4919521;28;125015;-74
2023/03/31 01:59:54;;;;;;;;;;;14.40;81.10;;;14.59;49.34;97980.94;4921880;28;123317;-74
2023/03/31 02:02:31;;;;;;;;;;;14.30;81.10;;;14.55;49.59;97961.38;4940053;28;120007;-74
2023/03/31 02:05:08;;;;;;;;;;;14.30;81.10;;;14.52;49.67;97973.22;4938055;28;118739;-73
2023/03/31 02:07:43;;;;;;;;;;;14.30;81.20;;;14.50;49.49;97972.75;4924986;28;124978;-73
2023/03/31 02:10:21;;;;;;;;;;;14.20;81.20;;;14.48;49.71;97960.38;4924312;28;124541;-74
2023/03/31 02:12:56;;;;;;;;;;;14.20;81.40;;;14.45;49.72;97967.44;4917964;28;118800;-73
2023/03/31 02:15:43;;;;;;;;;;;14.20;81.60;;;14.43;49.97;97955.91;4930685;28;118614;-74
2023/03/31 02:18:17;;;;;;;;;;;14.20;81.90;;;14.42;50.31;97950.69;4926143;28;124286;-73
2023/03/31 02:20:53;;;;;;;;;;;12.40;80.40;;;14.41;50.41;97927.66;4915764;28;124474;-73
2023/03/31 02:23:30;;;;;;;;;;;14.20;82.40;;;14.40;50.62;97931.59;4898391;28;119185;-74
2023/03/31 02:26:10;;;;;;;;;;;14.10;82.50;;;14.42;50.62;97926.47;4930091;28;119707;-73
2023/03/31 02:28:42;;;;;;;;;;;14.10;83.20;;;14.43;51.05;97917.00;4926903;28;124573;-74
2023/03/31 02:31:09;;;;;;;;;;;14.10;83.20;;;14.45;51.23;97922.16;4911683;28;123657;-73
2023/03/31 02:33:41;;;;;;;;;;;14.20;83.60;;;14.45;51.49;97911.84;4925028;28;120428;-74
2023/03/31 02:36:10;;;;;;;;;;;14.20;83.70;;;14.44;51.70;97903.91;4901708;28;118956;-74
2023/03/31 02:38:45;;;;;;;;;;;14.20;83.70;;;14.45;51.66;97899.94;4937399;28;124787;-74
2023/03/31 02:41:17;;;;;;;;;;;14.20;83.90;;;14.45;51.63;97889.63;4920185;28;124110;-73
2023/03/31 02:43:45;;;;;;;;;;;14.20;84.00;;;14.46;51.87;97871.81;4928935;28;118888;-73
2023/03/31 02:46:14;;;;;;;;;;;14.20;84.20;;;14.48;51.96;97850.00;4929760;28;118449;-73
2023/03/31 02:48:51;;;;;;;;;;;14.20;84.30;;;14.51;51.89;97832.59;4927526;28;124305;-74
2023/03/31 02:51:43;;;;;;;;;;;14.30;84.40;;;14.52;51.91;97834.25;4909902;28;122682;-74
2023/03/31 02:54:18;;;;;;;;;;;14.30;84.50;;;14.54;51.86;97826.34;4917716;28;119773;-73
2023/03/31 02:56:53;;;;;;;;;;;14.30;84.50;;;14.58;51.91;97832.78;4923787;28;118385;-74
2023/03/31 02:59:51;;;;;;;;;;;14.30;84.60;;;14.57;51.86;97820.06;4925997;28;124877;-74
2023/03/31 03:02:50;;;;;;;;;;;14.30;84.60;;;14.57;51.85;97814.50;4927052;28;124609;-74
2023/03/31 03:05:52;;;;;;;;;;;14.30;84.60;;;14.58;52.04;97799.44;4926524;28;119844;-75
2023/03/31 03:08:54;;;;;;;;;;;14.30;84.70;;;14.59;52.07;97783.56;4930377;28;118732;-74
2023/03/31 03:11:44;;;;;;;;;;;14.30;84.70;;;14.54;52.12;97779.09;4927467;28;124640;-74
2023/03/31 03:14:35;;;;;;;;;;;14.30;84.70;;;14.52;52.21;97767.53;4925881;28;124505;-74
2023/03/31 03:17:22;;;;;;;;;;;14.30;84.70;;;14.47;52.31;97753.88;4925893;28;118343;-73
2023/03/31 03:19:53;;;;;;;;;;;14.30;84.70;;;14.45;52.42;97749.84;4915982;28;118712;-74
2023/03/31 03:22:28;;;;;;;;;;;14.30;84.80;;;14.46;52.43;97746.72;4925784;28;124206;-74
2023/03/31 03:24:54;;;;;;;;;;;14.30;84.90;;;14.46;52.44;97724.50;4928251;28;124071;-74
2023/03/31 03:27:34;;;;;;;;;;;14.20;85.00;;;14.46;52.37;97718.94;4927861;28;120732;-74
2023/03/31 03:30:04;;;;;;;;;;;14.20;85.10;;;14.45;52.37;97711.75;4917549;28;119565;-74
2023/03/31 03:32:32;;;;;;;;;;;14.20;85.20;;;14.44;52.45;97703.78;4926895;28;124957;-74
2023/03/31 03:35:05;;;;;;;;;;;14.20;85.30;;;14.44;52.49;97706.56;4932125;28;125679;-74
2023/03/31 03:37:37;;;;;;;;;;;14.20;85.40;;;14.44;52.54;97695.47;4926682;28;119895;-74
2023/03/31 03:40:07;;;;;;;;;;;14.20;85.40;;;14.43;52.67;97691.09;4928928;28;118485;-74
2023/03/31 03:42:40;;;;;;;;;;;14.20;85.50;;;14.41;52.65;97699.78;4927227;28;124395;-74
2023/03/31 03:45:07;;;;;;;;;;;14.10;85.50;;;14.40;52.70;97684.28;4929369;28;124673;-74
2023/03/31 03:47:34;;;;;;;;;;;14.10;85.50;;;14.39;52.76;97681.84;4929797;28;119887;-74
2023/03/31 03:50:03;;;;;;;;;;;13.40;84.90;;;14.35;52.82;97676.22;4929998;28;118172;-75
2023/03/31 03:52:29;;;;;;;;;;;14.10;85.60;;;14.32;52.92;97668.63;4930019;28;124603;-74
2023/03/31 03:54:56;;;;;;;;;;;14.10;85.70;;;14.30;53.08;97660.66;4944181;28;122669;-74
2023/03/31 03:57:22;;;;;;;;;;;14.00;85.70;;;14.28;52.94;97656.63;4931595;28;119305;-75
2023/03/31 03:59:51;;;;;;;;;;;14.00;85.80;;;14.25;53.19;97651.81;4924872;28;118292;-75
2023/03/31 04:02:20;;;;;;;;;;;14.00;86.20;;;14.20;53.15;97633.44;4926671;28;124031;-74
2023/03/31 04:04:51;;;;;;;;;;;14.00;86.20;;;14.19;53.17;97639.38;4925704;28;123195;-74
2023/03/31 04:07:17;;;;;;;;;;;13.90;86.10;;;14.19;53.42;97631.03;4920680;28;120319;-74
2023/03/31 04:09:44;;;;;;;;;;;13.90;86.20;;;14.14;53.51;97624.59;4928943;28;117655;-74
2023/03/31 04:12:10;;;;;;;;;;;13.90;86.40;;;14.11;53.58;97619.78;4925908;28;125573;-74
2023/03/31 04:14:38;;;;;;;;;;;13.90;86.40;;;14.08;53.60;97608.59;4927742;28;121944;-74
2023/03/31 04:17:05;;;;;;;;;;;13.80;86.40;;;14.02;53.68;97596.94;4924040;28;120732;-74
2023/03/31 04:19:31;;;;;;;;;;;13.80;86.60;;;13.99;54.00;97594.91;4925450;28;120110;-74
2023/03/31 04:22:01;;;;;;;;;;;13.80;86.60;;;13.98;53.97;97581.41;4926627;28;124676;-74
2023/03/31 04:24:33;;;;;;;;;;;13.80;86.80;;;13.95;54.03;97594.03;4929170;28;122533;-74
2023/03/31 04:27:06;;;;;;;;;;;13.70;87.00;;;13.90;54.35;97574.88;4924255;28;119710;-74
2023/03/31 04:29:32;;;;;;;;;;;13.70;87.40;;;13.85;54.60;97570.41;4924724;28;118848;-74
2023/03/31 04:32:05;;;;;;;;;;;13.60;87.50;;;13.82;54.57;97570.34;4927956;28;123215;-75
2023/03/31 04:34:45;;;;;;;;;;;13.60;87.60;;;13.76;54.83;97569.84;4928865;28;123248;-74
2023/03/31 04:37:16;;;;;;;;;;;13.50;87.80;;;13.71;55.01;97578.44;4906700;28;118990;-74
2023/03/31 04:39:45;;;;;;;;;;;13.40;88.20;;;13.67;55.33;97577.56;4922787;28;119032;-74
2023/03/31 04:42:14;;;;;;;;;;;13.40;88.50;;;13.64;55.12;97578.28;4923296;28;124888;-74
2023/03/31 04:44:43;;;;;;;;;;;13.40;88.40;;;13.61;55.23;97577.03;4929364;28;123741;-74
2023/03/31 04:47:14;;;;;;;;;;;13.30;88.70;;;13.57;55.33;97556.75;4931683;28;118915;-74
2023/03/31 04:49:40;;;;;;;;;;;12.30;87.90;;;13.57;55.38;97553.97;4922002;28;119336;-75
2023/03/31 04:52:09;;;;;;;;;;;13.30;88.70;;;13.60;55.41;97555.22;4929380;28;124206;-74
2023/03/31 04:54:38;;;;;;;;;;;13.30;88.90;;;13.62;55.68;97559.25;4924627;28;124202;-74
2023/03/31 04:57:05;;;;;;;;;;;13.30;89.10;;;13.62;55.72;97556.47;4930566;28;119409;-74
2023/03/31 04:59:33;;;;;;;;;;;13.30;89.20;;;13.60;55.70;97550.47;4931180;28;118697;-75
2023/03/31 05:02:03;;;;;;;;;;;13.30;89.30;;;13.59;55.93;97554.38;4930540;28;123843;-74
2023/03/31 05:04:31;;;;;;;;;;;13.30;90.00;;;13.58;55.93;97550.00;4929201;28;124312;-74
2023/03/31 05:06:58;;;;;;;;;;;13.30;89.50;;;13.56;55.81;97527.38;4930326;28;120287;-76
2023/03/31 05:09:29;;;;;;;;;;;13.30;89.50;;;13.57;55.76;97539.28;4923451;28;119294;-74
2023/03/31 05:11:56;;;;;;;;;;;13.30;90.00;;;13.54;55.95;97540.81;4926869;28;124290;-75
2023/03/31 05:14:22;;;;;;;;;;;13.30;89.70;;;13.53;56.11;97539.19;4914617;28;123552;-74
2023/03/31 05:16:51;;;;;;;;;;;13.20;89.60;;;13.53;56.31;97558.63;4928902;28;119835;-75
2023/03/31 05:19:17;;;;;;;;;;;13.30;90.00;;;13.51;56.29;97572.03;4947030;28;118116;-76
2023/03/31 05:21:44;;;;;;;;;;;13.30;90.10;;;13.48;56.55;97570.00;4928766;28;124231;-75
2023/03/31 05:24:10;;;;;;;;;;;13.20;90.10;;;13.45;56.82;97595.69;4929467;28;123997;-75
2023/03/31 05:26:39;;;;;;;;;;;13.20;90.40;;;13.39;57.31;97606.28;4924377;28;119329;-75
2023/03/31 05:29:06;;;;;;;;;;;13.10;90.50;;;13.33;57.74;97596.63;4928485;28;118971;-74
2023/03/31 05:31:32;;;;;;;;;;;13.10;90.90;;;13.29;58.06;97594.91;4929714;28;124538;-73
2023/03/31 05:33:59;;;;;;;;;;;13.10;91.10;;;13.25;58.61;97589.28;4921937;28;123802;-74
2023/03/31 05:36:25;;;;;;;;;;;13.00;91.30;;;13.25;58.94;97590.06;4929365;28;119737;-73
2023/03/31 05:38:52;;;;;;;;;;;13.70;91.80;;;13.24;58.93;97594.03;4927101;28;118706;-74
2023/03/31 05:41:18;;;;;;;;;;;13.00;91.60;;;13.24;59.27;97587.63;4928760;28;123176;-74
2023/03/31 05:43:47;;;;;;;;;;;13.00;91.80;;;13.23;59.49;97575.75;4929077;28;124024;-76
2023/03/31 05:46:13;;;;;;;;;;;13.00;91.80;;;13.24;59.57;97579.31;4928639;28;118952;-73
2023/03/31 05:48:40;;;;;;;;;;;13.00;92.00;;;13.28;59.59;97576.69;4928938;28;119075;-74
2023/03/31 05:51:13;;;;;;;;;;;13.00;92.10;;;13.29;59.70;97567.19;4937695;28;123351;-73
2023/03/31 05:53:40;;;;;;;;;;;13.10;92.30;;;13.30;59.99;97541.03;4920898;28;124539;-75
2023/03/31 05:56:13;;;;;;;;;;;13.10;92.30;;;13.31;59.94;97534.34;4937006;28;120447;-74
2023/03/31 05:58:40;;;;;;;;;;;13.10;92.50;;;13.30;60.05;97529.94;4926696;28;118837;-73
2023/03/31 06:01:11;;;;;;;;;;;13.10;92.50;;;13.31;60.25;97526.03;4928958;28;124277;-75
2023/03/31 06:03:45;;;;;;;;;;;13.10;92.60;;;13.32;60.24;97520.09;4927904;28;123941;-74
2023/03/31 06:06:13;;;;;;;;;;;13.10;92.70;;;13.31;60.45;97514.94;4914691;28;119929;-73
2023/03/31 06:08:48;;;;;;;;;;;13.10;92.80;;;13.35;60.44;97513.03;4923507;28;118466;-74
2023/03/31 06:11:21;;;;;;;;;;;13.10;92.80;;;13.35;60.38;97507.47;4923091;28;124810;-74
2023/03/31 06:13:47;;;;;;;;;;;13.10;92.90;;;13.35;60.54;97510.25;4903953;28;124197;-74
2023/03/31 06:16:15;;;;;;;;;;;13.10;92.90;;;13.35;60.56;97488.06;4927304;28;119155;-73
2023/03/31 06:18:45;;;;;;;;;;;13.10;93.00;;;13.36;60.73;97489.69;4905287;28;118767;-74
2023/03/31 06:21:15;;;;;;;;;;;13.10;93.10;;;13.37;60.65;97496.81;4927958;28;124197;-77
2023/03/31 06:23:43;;;;;;;;;;;13.10;93.10;;;13.37;60.64;97469.09;4921037;28;123339;-73
2023/03/31 06:26:12;;;;;;;;;;;13.10;93.20;;;13.39;60.70;97469.53;4921838;28;118918;-73
2023/03/31 06:28:38;;;;;;;;;;;13.10;93.20;;;13.39;60.83;97467.56;4919688;28;118728;-74
2023/03/31 06:31:11;;;;;;;;;;;13.10;93.30;;;13.42;60.86;97468.81;4912476;28;123277;-73
2023/03/31 06:33:45;;;;;;;;;;;13.10;93.40;;;13.42;60.83;97466.81;4925598;28;124453;-73
2023/03/31 06:36:14;;;;;;;;;;;13.10;93.40;;;13.42;60.58;97472.38;4903526;28;119880;-72
2023/03/31 06:38:41;;;;;;;;;;;13.10;93.40;;;13.42;60.63;97471.56;4927719;28;119304;-73
2023/03/31 06:41:12;;;;;;;;;;;13.10;93.40;;;13.42;60.67;97466.03;4931701;28;124343;-75
2023/03/31 06:43:39;;;;;;;;;;;13.10;93.50;;;13.40;60.89;97479.44;4921877;28;125459;-74
2023/03/31 06:46:14;;;;;;;;;;;13.10;93.50;;;13.39;61.19;97477.84;4924858;28;120221;-77
2023/03/31 06:48:40;;;;;;;;;;;13.10;93.60;;;13.37;61.10;97480.97;4927397;28;119763;-73
2023/03/31 06:51:07;;;;;;;;;;;13.10;93.70;;;13.37;61.25;97494.06;4921700;28;124153;-75
2023/03/31 06:53:35;;;;;;;;;;;13.10;93.80;;;13.35;61.21;97496.38;4912605;28;123026;-74
2023/03/31 06:56:09;;;;;;;;;;;13.10;93.90;;;13.32;61.65;97500.69;4910309;28;118598;-73
2023/03/31 06:58:35;;;;;;;;;;;13.10;93.90;;;13.30;61.88;97518.84;4927492;28;118885;-74
2023/03/31 07:01:07;;;;;;;;;;;13.10;94.10;;;13.26;61.73;97530.66;4925816;28;123921;-74
2023/03/31 07:03:33;;;;;;;;;;;13.00;94.10;;;13.20;62.34;97551.50;4924440;28;123166;-75
2023/03/31 07:06:00;;;;;;;;;;;12.90;94.30;;;13.11;62.62;97562.00;4930595;28;119211;-74
2023/03/31 07:08:29;;;;;;;;;;;12.90;94.50;;;13.03;63.37;97563.78;4927298;28;118858;-74
2023/03/31 07:10:59;;;;;;;;;;;12.80;94.70;;;12.95;63.48;97545.38;4926636;28;124211;-74
2023/03/31 07:13:31;;;;;;;;;;;12.70;94.90;;;12.86;63.71;97543.94;4924366;28;124315;-73
2023/03/31 07:15:58;;;;;;;;;;;12.60;95.20;;;12.77;64.24;97519.97;4926885;28;119833;-73
2023/03/31 07:18:24;;;;;;;;;;;12.60;95.40;;;12.72;64.29;97478.69;4945346;28;118481;-73
2023/03/31 07:20:53;;;;;;;;;;;12.50;95.40;;;12.71;64.47;97449.38;4919709;28;124414;-73
2023/03/31 07:23:20;;;;;;;;;;;12.50;95.60;;;12.71;64.62;97471.53;4942227;28;122995;-74
2023/03/31 07:25:46;;;;;;;;;;;12.40;95.70;;;12.72;64.31;97439.88;4939137;28;119515;-73
2023/03/31 07:28:17;;;;;;;;;;;12.40;95.70;;;12.74;64.17;97447.84;4939649;28;117954;-80
2023/03/31 07:30:43;;;;;;;;;;;12.40;95.70;;;12.71;64.36;97443.03;4926249;28;124270;-74
2023/03/31 07:33:12;;;;;;;;;;;12.40;95.70;;;12.71;63.95;97463.22;4927224;28;123701;-74
2023/03/31 07:35:39;;;;;;;;;;;12.40;95.70;;;12.70;63.62;97461.59;4920470;28;120041;-74
2023/03/31 07:38:10;;;;;;;;;;;12.30;95.50;;;12.68;63.42;97466.72;4926484;28;120376;-73
2023/03/31 07:40:46;;;;;;;;;;;12.30;95.70;;;12.71;63.50;97463.22;4911204;28;123273;-74
2023/03/31 07:43:12;;;;;;;;;;;12.30;95.40;;;12.77;63.08;97464.56;4926971;28;124133;-76
2023/03/31 07:45:39;;;;;;;;;;;12.40;95.40;;;12.80;63.05;97466.59;4926086;28;119637;-74
2023/03/31 07:48:09;;;;;;;;;;;12.40;95.30;;;12.89;62.77;97457.28;4917119;28;118934;-78
2023/03/31 07:50:36;;;;;;;;;;;12.40;95.20;;;12.98;62.23;97464.25;4925783;28;124628;-78
2023/03/31 07:53:02;;;;;;;;;;;12.50;95.20;;;13.02;61.52;97442.16;4927168;28;124044;-73
2023/03/31 07:55:32;;;;;;;;;;;12.60;94.80;;;13.11;61.05;97433.63;4927017;28;120003;-76
2023/03/31 07:57:58;;;;;;;;;;;12.50;94.50;;;13.19;60.69;97438.97;4926913;28;118769;-74
2023/03/31 08:00:27;;;;;;;;;;;12.70;94.30;;;13.22;59.84;97441.03;4925854;28;124638;-73
2023/03/31 08:02:59;;;;;;;;;;;12.70;93.90;;;13.22;59.52;97435.47;4917352;28;124154;-79
2023/03/31 08:05:27;;;;;;;;;;;12.70;93.50;;;13.23;59.19;97425.97;4929332;28;119592;-75
2023/03/31 08:07:56;;;;;;;;;;;12.80;93.40;;;13.29;58.87;97434.03;4939787;28;119208;-75
2023/03/31 08:10:25;;;;;;;;;;;12.80;93.20;;;13.33;58.70;97443.25;4926048;28;124136;-75
2023/03/31 08:13:00;;;;;;;;;;;12.90;93.20;;;13.42;58.36;97427.19;4925194;28;124469;-78
2023/03/31 08:15:26;;;;;;;;;;;12.90;93.10;;;13.51;58.57;97447.19;4926641;28;119586;-76
2023/03/31 08:17:56;;;;;;;;;;;13.00;93.20;;;13.63;58.44;97443.47;4932668;28;118706;-73
2023/03/31 08:20:22;;;;;;;;;;;13.10;93.10;;;13.72;58.31;97437.69;4932599;28;124335;-74
2023/03/31 08:22:48;;;;;;;;;;;13.20;93.10;;;13.78;58.08;97420.38;4934610;28;123819;-75
2023/03/31 08:25:15;;;;;;;;;;;13.30;93.00;;;13.85;58.21;97422.47;4932108;28;120344;-74
2023/03/31 08:27:49;;;;;;;;;;;13.30;92.90;;;13.91;57.67;97426.53;4931179;28;118890;-76
2023/03/31 08:30:20;;;;;;;;;;;13.40;92.80;;;13.98;57.70;97417.56;4934309;28;124056;-75
2023/03/31 08:32:48;;;;;;;;;;;13.50;92.80;;;14.03;57.55;97403.38;4931770;28;123553;-75
2023/03/31 08:35:22;;;;;;;;;;;13.50;92.70;;;14.09;57.65;97399.91;4927275;28;118774;-76
2023/03/31 08:37:48;;;;;;;;;;;13.60;92.70;;;14.19;57.59;97397.69;4930259;28;120399;-75
2023/03/31 08:40:22;;;;;;;;;;;13.70;92.80;;;14.27;57.24;97413.31;4932781;28;124961;-73
2023/03/31 08:42:58;;;;;;;;;;;13.70;92.60;;;14.31;56.51;97397.50;4932906;28;123901;-73
2023/03/31 08:45:47;;;;;;;;;;;13.80;92.10;;;14.33;56.22;97390.41;4936956;28;119507;-75
2023/03/31 08:48:26;;;;;;;;;;;13.90;92.00;;;14.41;55.86;97393.31;4932580;28;118301;-74
2023/03/31 08:51:45;;;;;;;;;;;13.90;91.80;;;14.49;55.79;97401.38;4926596;28;124548;-74
2023/03/31 08:54:42;;;;;;;;;;;14.00;91.80;;;14.61;55.11;97407.94;4925527;28;124265;-74
2023/03/31 08:57:26;;;;;;;;;;;14.10;91.50;;;14.67;54.99;97396.13;4935518;28;119152;-75
2023/03/31 09:00:05;;;;;;;;;;;14.20;91.20;;;14.75;55.00;97388.69;4917308;28;117847;-75
2023/03/31 09:02:37;;;;;;;;;;;14.30;91.30;;;14.84;54.67;97397.56;4933025;28;123102;-74
2023/03/31 09:05:24;;;;;;;;;;;14.30;91.10;;;14.92;54.77;97406.81;4932775;28;123825;-75
2023/03/31 09:08:18;;;;;;;;;;;14.40;91.10;;;15.01;54.84;97387.84;4935330;28;112359;-75
2023/03/31 09:11:21;;;;;;;;;;;14.50;91.10;;;15.11;54.20;97387.19;4930679;28;118710;-76
2023/03/31 09:14:01;;;;;;;;;;;14.70;90.90;;;15.18;52.87;97375.38;4931349;28;123389;-74
2023/03/31 09:16:56;;;;;;;;;;;14.70;90.50;;;15.24;50.94;97396.13;4932037;28;123893;-78
2023/03/31 09:19:44;;;;;;;;;;;14.80;87.80;;;15.25;50.28;97361.53;4932162;28;121082;-77
2023/03/31 09:22:22;;;;;;;;;;;14.80;86.50;;;15.30;50.26;97364.00;4923655;28;119508;-77
2023/03/31 09:25:01;;;;;;;;;;;14.90;86.50;;;15.40;49.01;97384.78;4933020;28;123727;-78
2023/03/31 09:27:34;;;;;;;;;;;15.00;84.80;;;15.44;48.41;97364.16;4931869;28;123186;-78
2023/03/31 09:30:02;;;;;;;;;;;15.00;83.90;;;15.50;48.07;97367.44;4913622;28;118441;-78
2023/03/31 09:32:32;;;;;;;;;;;15.10;83.50;;;15.56;48.36;97353.97;4926203;28;119214;-80
2023/03/31 09:35:01;;;;;;;;;;;15.10;83.40;;;15.61;48.43;97365.56;4928584;28;126832;-78
2023/03/31 09:37:32;;;;;;;;;;;15.20;83.60;;;15.64;48.19;97369.56;4932378;28;124004;-80
2023/03/31 09:40:11;;;;;;;;;;;15.30;83.30;;;15.67;48.27;97372.38;4926267;28;119693;-78
2023/03/31 09:42:37;;;;;;;;;;;15.30;83.20;;;15.66;48.20;97370.78;4925065;28;118362;-78
2023/03/31 09:45:17;;;;;;;;;;;15.30;83.10;;;15.66;47.75;97378.31;4924292;28;124982;-80
2023/03/31 09:47:46;;;;;;;;;;;15.30;82.50;;;15.62;47.43;97367.16;4945260;28;123480;-78
2023/03/31 09:50:23;;;;;;;;;;;15.20;81.70;;;15.61;46.92;97364.75;4928317;28;119652;-79
2023/03/31 09:52:58;;;;;;;;;;;15.20;81.10;;;15.63;46.30;97373.50;4916987;28;118819;-77
2023/03/31 09:55:33;;;;;;;;;;;15.30;80.00;;;15.64;45.79;97367.56;4931523;28;124811;-78
2023/03/31 09:58:03;;;;;;;;;;;15.30;79.20;;;15.68;45.68;97348.94;4926366;28;124094;-78
2023/03/31 10:00:29;;;;;;;;;;;15.30;78.90;;;15.71;45.80;97347.38;4921030;28;119674;-80
2023/03/31 10:02:56;;;;;;;;;;;15.30;79.30;;;15.79;45.98;97328.75;4927542;28;118760;-78
2023/03/31 10:05:48;;;;;;;;;;;15.40;79.50;;;15.86;45.86;97329.63;4926613;28;123511;-78
2023/03/31 10:08:26;;;;;;;;;;;15.50;79.20;;;15.93;45.29;97353.16;4916146;28;122009;-78
2023/03/31 10:10:57;;;;;;;;;;;15.50;78.50;;;15.93;44.63;97322.50;4935567;28;120473;-79
2023/03/31 10:13:28;;;;;;;;;;;15.60;77.70;;;15.96;44.74;97313.38;4946116;28;118902;-80
2023/03/31 10:16:02;;;;;;;;;;;15.60;77.50;;;16.01;44.62;97307.47;4926729;28;124108;-79
2023/03/31 10:18:34;;;;;;;;;;;15.60;77.50;;;16.09;44.19;97317.47;4922737;28;126407;-79
2023/03/31 10:21:03;;;;;;;;;;;15.60;76.70;;;16.12;44.33;97336.25;4915714;28;119877;-77
2023/03/31 10:23:33;;;;;;;;;;;15.70;77.10;;;16.13;43.86;97296.81;4916095;28;118897;-85
2023/03/31 10:26:02;;;;;;;;;;;15.70;76.10;;;16.17;43.96;97296.84;4909172;28;123220;-79
2023/03/31 10:28:34;;;;;;;;;;;15.80;76.20;;;16.22;43.61;97302.06;4928355;28;123261;-77
2023/03/31 10:31:01;;;;;;;;;;;15.80;75.80;;;16.27;42.36;97332.34;4925828;28;120080;-78
2023/03/31 10:33:33;;;;;;;;;;;15.90;74.40;;;16.28;42.41;97305.28;4926429;28;119298;-78
2023/03/31 10:36:02;;;;;;;;;;;15.90;73.70;;;16.30;42.09;97289.78;4944116;28;123853;-77
2023/03/31 10:38:41;;;;;;;;;;;16.00;73.50;;;16.38;42.23;97282.28;4927601;28;123268;-78
2023/03/31 10:41:11;;;;;;;;;;;16.00;73.60;;;16.42;41.30;97258.03;4926787;28;120274;-78
2023/03/31 10:43:43;;;;;;;;;;;16.00;72.20;;;16.50;41.00;97281.16;4925537;28;117913;-77
2023/03/31 10:46:11;;;;;;;;;;;16.10;71.70;;;16.58;40.41;97268.88;4904918;28;123547;-80
2023/03/31 10:48:41;;;;;;;;;;;16.20;70.80;;;16.61;39.81;97258.91;4928682;28;124023;-78
2023/03/31 10:51:13;;;;;;;;;;;16.20;69.60;;;16.63;40.19;97285.22;4928439;28;119961;-78
2023/03/31 10:53:48;;;;;;;;;;;16.30;70.00;;;16.69;40.27;97249.41;4923395;28;119418;-77
2023/03/31 10:56:41;;;;;;;;;;;16.30;70.30;;;16.76;40.13;97232.69;4928355;28;124427;-76
2023/03/31 10:59:26;;;;;;;;;;;16.40;70.20;;;16.86;39.98;97247.91;4919410;28;123489;-79
2023/03/31 11:01:55;;;;;;;;;;;16.40;69.70;;;16.91;39.31;97228.00;4927063;28;119676;-79
2023/03/31 11:04:31;;;;;;;;;;;16.50;68.90;;;16.99;39.46;97235.19;4935188;28;119606;-78
2023/03/31 11:07:26;;;;;;;;;;;16.50;68.70;;;17.04;39.38;97232.03;4937997;28;124571;-80
2023/03/31 11:10:02;;;;;;;;;;;16.60;68.80;;;17.06;39.02;97245.56;4931187;28;124411;-78
2023/03/31 11:12:33;;;;;;;;;;;16.70;68.30;;;16.99;38.75;97246.38;4930348;28;119606;-78
2023/03/31 11:15:28;;;;;;;;;;;16.60;67.60;;;16.92;38.95;97235.97;4928896;28;118780;-78
2023/03/31 11:18:01;;;;;;;;;;;16.60;67.70;;;16.88;40.36;97256.69;4916731;28;123852;-78
2023/03/31 11:20:29;;;;;;;;;;;16.50;69.40;;;16.72;41.22;97313.56;4917089;28;123572;-76
2023/03/31 11:23:27;;;;;;;;;;;16.40;70.40;;;16.49;46.44;97369.56;4927952;28;119221;-77
2023/03/31 11:26:02;;;;;;;;;;;16.20;76.40;;;15.70;50.08;97465.53;4925855;28;118659;-77
2023/03/31 11:28:44;;;;;;;;;;;15.60;82.10;;;14.86;51.47;97423.03;4923251;28;123281;-78
2023/03/31 11:31:16;;;;;;;;;;;14.80;84.00;;;14.25;52.04;97463.69;4926595;28;124174;-77
2023/03/31 11:34:05;;;;;;;;;;;14.10;84.20;;;13.74;52.61;97397.28;4914481;28;118644;-77
2023/03/31 11:36:38;;;;;;;;;;;13.60;84.70;;;13.43;53.54;97412.13;4925992;28;118828;-76
2023/03/31 11:39:26;;;;;;;;;;;13.30;85.70;;;13.17;53.45;97421.88;4926612;28;124973;-77